sensor_id;sensor_type;location;lat;lon;timestamp;P1;durP1;ratioP1;P2;durP2;ratioP2
7737;SDS011;29398;45.328;5.558;2023-01-16T00:00:56;22.70;;;20.30;;
7737;SDS011;29398;45.328;5.558;2023-01-16T00:01:59;23.55;;;21.10;;
7737;SDS011;29398;45.328;5.558;2023-01-16T00:03:02;26.23;;;22.10;;
7737;SDS011;29398;45.328;5.558;2023-01-16T00:04:04;24.85;;;22.27;;
7737;SDS011;29398;45.328;5.558;2023-01-16T00:05:06;24.92;;;22.15;;
7737;SDS011;29398;45.328;5.558;2023-01-16T00:06:08;24.35;;;21.77;;
7737;SDS011;29398;45.328;5.558;2023-01-16T00:07:10;26.77;;;24.15;;
7737;SDS011;29398;45.328;5.558;2023-01-16T00:08:11;28.23;;;23.25;;
7737;SDS011;29398;45.328;5.558;2023-01-16T00:09:13;23.38;;;19.92;;
7737;SDS011;29398;45.328;5.558;2023-01-16T00:10:14;30.40;;;26.45;;
7737;SDS011;29398;45.328;5.558;2023-01-16T00:11:18;25.00;;;22.42;;
7737;SDS011;29398;45.328;5.558;2023-01-16T00:12:19;21.67;;;19.35;;
7737;SDS011;29398;45.328;5.558;2023-01-16T00:13:21;23.00;;;20.67;;
7737;SDS011;29398;45.328;5.558;2023-01-16T00:14:22;26.75;;;24.02;;
7737;SDS011;29398;45.328;5.558;2023-01-16T00:15:24;24.85;;;21.88;;
7737;SDS011;29398;45.328;5.558;2023-01-16T00:16:25;24.30;;;21.00;;
7737;SDS011;29398;45.328;5.558;2023-01-16T00:17:27;22.40;;;19.65;;
7737;SDS011;29398;45.328;5.558;2023-01-16T00:18:28;23.85;;;21.42;;
7737;SDS011;29398;45.328;5.558;2023-01-16T00:19:32;22.10;;;19.77;;
7737;SDS011;29398;45.328;5.558;2023-01-16T00:20:33;25.40;;;20.67;;
7737;SDS011;29398;45.328;5.558;2023-01-16T00:21:35;43.20;;;22.55;;
7737;SDS011;29398;45.328;5.558;2023-01-16T00:22:36;30.45;;;20.38;;
7737;SDS011;29398;45.328;5.558;2023-01-16T00:23:38;53.28;;;23.10;;
7737;SDS011;29398;45.328;5.558;2023-01-16T00:24:39;57.10;;;22.15;;
7737;SDS011;29398;45.328;5.558;2023-01-16T00:25:42;58.10;;;22.60;;
7737;SDS011;29398;45.328;5.558;2023-01-16T00:26:43;44.70;;;20.10;;
7737;SDS011;29398;45.328;5.558;2023-01-16T00:27:46;43.75;;;19.17;;
7737;SDS011;29398;45.328;5.558;2023-01-16T00:28:47;51.03;;;23.10;;
7737;SDS011;29398;45.328;5.558;2023-01-16T00:29:49;51.10;;;20.17;;
7737;SDS011;29398;45.328;5.558;2023-01-16T00:30:50;33.42;;;21.80;;
7737;SDS011;29398;45.328;5.558;2023-01-16T00:31:52;37.08;;;21.02;;
7737;SDS011;29398;45.328;5.558;2023-01-16T00:32:53;50.03;;;25.52;;
7737;SDS011;29398;45.328;5.558;2023-01-16T00:33:55;39.30;;;22.17;;
7737;SDS011;29398;45.328;5.558;2023-01-16T00:34:57;29.23;;;20.15;;
7737;SDS011;29398;45.328;5.558;2023-01-16T00:36:00;36.60;;;23.05;;
7737;SDS011;29398;45.328;5.558;2023-01-16T00:37:01;22.75;;;20.23;;
7737;SDS011;29398;45.328;5.558;2023-01-16T00:38:03;25.65;;;22.85;;
7737;SDS011;29398;45.328;5.558;2023-01-16T00:39:04;25.10;;;22.52;;
7737;SDS011;29398;45.328;5.558;2023-01-16T00:40:07;21.98;;;19.02;;
7737;SDS011;29398;45.328;5.558;2023-01-16T00:41:09;21.08;;;18.73;;
7737;SDS011;29398;45.328;5.558;2023-01-16T00:42:11;20.80;;;18.70;;
7737;SDS011;29398;45.328;5.558;2023-01-16T00:43:12;21.05;;;18.48;;
7737;SDS011;29398;45.328;5.558;2023-01-16T00:44:14;22.73;;;20.33;;
7737;SDS011;29398;45.328;5.558;2023-01-16T00:45:16;23.77;;;21.33;;
7737;SDS011;29398;45.328;5.558;2023-01-16T00:46:18;25.63;;;22.70;;
7737;SDS011;29398;45.328;5.558;2023-01-16T00:47:19;24.67;;;21.95;;
7737;SDS011;29398;45.328;5.558;2023-01-16T00:48:22;22.55;;;18.73;;
7737;SDS011;29398;45.328;5.558;2023-01-16T00:49:23;22.27;;;18.63;;
7737;SDS011;29398;45.328;5.558;2023-01-16T00:50:26;27.38;;;20.40;;
7737;SDS011;29398;45.328;5.558;2023-01-16T00:51:27;29.20;;;19.40;;
7737;SDS011;29398;45.328;5.558;2023-01-16T00:52:29;29.80;;;20.23;;
7737;SDS011;29398;45.328;5.558;2023-01-16T00:53:30;38.60;;;22.40;;
7737;SDS011;29398;45.328;5.558;2023-01-16T00:54:33;30.75;;;20.08;;
7737;SDS011;29398;45.328;5.558;2023-01-16T00:55:34;50.83;;;20.13;;
7737;SDS011;29398;45.328;5.558;2023-01-16T00:56:41;107.10;;;20.90;;
7737;SDS011;29398;45.328;5.558;2023-01-16T00:57:42;97.00;;;21.75;;
7737;SDS011;29398;45.328;5.558;2023-01-16T00:58:44;137.95;;;22.38;;
7737;SDS011;29398;45.328;5.558;2023-01-16T00:59:45;90.40;;;20.83;;
7737;SDS011;29398;45.328;5.558;2023-01-16T01:00:47;104.82;;;22.58;;
7737;SDS011;29398;45.328;5.558;2023-01-16T01:01:49;93.30;;;25.13;;
7737;SDS011;29398;45.328;5.558;2023-01-16T01:02:51;79.35;;;21.52;;
7737;SDS011;29398;45.328;5.558;2023-01-16T01:03:52;134.95;;;21.38;;
7737;SDS011;29398;45.328;5.558;2023-01-16T01:04:54;85.65;;;23.33;;
7737;SDS011;29398;45.328;5.558;2023-01-16T01:05:57;103.03;;;21.48;;
7737;SDS011;29398;45.328;5.558;2023-01-16T01:06:59;136.20;;;24.35;;
7737;SDS011;29398;45.328;5.558;2023-01-16T01:08:01;151.07;;;24.00;;
7737;SDS011;29398;45.328;5.558;2023-01-16T01:09:03;171.68;;;24.30;;
7737;SDS011;29398;45.328;5.558;2023-01-16T01:10:04;141.35;;;23.63;;
7737;SDS011;29398;45.328;5.558;2023-01-16T01:11:07;147.23;;;26.50;;
7737;SDS011;29398;45.328;5.558;2023-01-16T01:12:09;160.60;;;23.23;;
7737;SDS011;29398;45.328;5.558;2023-01-16T01:13:12;97.28;;;20.92;;
7737;SDS011;29398;45.328;5.558;2023-01-16T01:14:13;126.55;;;28.30;;
7737;SDS011;29398;45.328;5.558;2023-01-16T01:15:15;107.50;;;25.60;;
7737;SDS011;29398;45.328;5.558;2023-01-16T01:16:16;85.80;;;23.58;;
7737;SDS011;29398;45.328;5.558;2023-01-16T01:17:18;100.35;;;25.50;;
7737;SDS011;29398;45.328;5.558;2023-01-16T01:18:20;79.57;;;22.08;;
7737;SDS011;29398;45.328;5.558;2023-01-16T01:19:22;60.85;;;18.88;;
7737;SDS011;29398;45.328;5.558;2023-01-16T01:20:23;51.78;;;20.52;;
7737;SDS011;29398;45.328;5.558;2023-01-16T01:21:26;56.13;;;22.92;;
7737;SDS011;29398;45.328;5.558;2023-01-16T01:22:27;81.78;;;27.15;;
7737;SDS011;29398;45.328;5.558;2023-01-16T01:23:30;62.97;;;21.27;;
7737;SDS011;29398;45.328;5.558;2023-01-16T01:24:31;43.63;;;19.48;;
7737;SDS011;29398;45.328;5.558;2023-01-16T01:25:33;63.05;;;19.85;;
7737;SDS011;29398;45.328;5.558;2023-01-16T01:26:37;63.42;;;24.77;;
7737;SDS011;29398;45.328;5.558;2023-01-16T01:27:39;78.50;;;25.75;;
7737;SDS011;29398;45.328;5.558;2023-01-16T01:28:41;35.67;;;22.15;;
7737;SDS011;29398;45.328;5.558;2023-01-16T01:29:44;46.97;;;20.23;;
7737;SDS011;29398;45.328;5.558;2023-01-16T01:30:45;38.92;;;20.88;;
7737;SDS011;29398;45.328;5.558;2023-01-16T01:31:47;34.35;;;20.92;;
7737;SDS011;29398;45.328;5.558;2023-01-16T01:32:48;30.95;;;22.00;;
7737;SDS011;29398;45.328;5.558;2023-01-16T01:33:50;34.85;;;20.98;;
7737;SDS011;29398;45.328;5.558;2023-01-16T01:34:52;40.13;;;21.27;;
7737;SDS011;29398;45.328;5.558;2023-01-16T01:35:54;38.50;;;22.92;;
7737;SDS011;29398;45.328;5.558;2023-01-16T01:36:56;35.70;;;22.65;;
7737;SDS011;29398;45.328;5.558;2023-01-16T01:37:58;63.05;;;26.73;;
7737;SDS011;29398;45.328;5.558;2023-01-16T01:38:59;57.00;;;25.85;;
7737;SDS011;29398;45.328;5.558;2023-01-16T01:40:01;42.05;;;22.80;;
7737;SDS011;29398;45.328;5.558;2023-01-16T01:41:04;38.65;;;24.25;;
7737;SDS011;29398;45.328;5.558;2023-01-16T01:42:09;51.53;;;25.38;;
7737;SDS011;29398;45.328;5.558;2023-01-16T01:43:38;50.03;;;25.30;;
7737;SDS011;29398;45.328;5.558;2023-01-16T01:44:44;74.40;;;24.50;;
7737;SDS011;29398;45.328;5.558;2023-01-16T01:45:51;71.97;;;29.08;;
7737;SDS011;29398;45.328;5.558;2023-01-16T01:46:55;113.38;;;28.52;;
7737;SDS011;29398;45.328;5.558;2023-01-16T01:47:58;80.95;;;26.85;;
7737;SDS011;29398;45.328;5.558;2023-01-16T01:49:05;94.40;;;28.05;;
7737;SDS011;29398;45.328;5.558;2023-01-16T01:50:13;80.05;;;28.15;;
7737;SDS011;29398;45.328;5.558;2023-01-16T01:51:18;65.72;;;29.42;;
7737;SDS011;29398;45.328;5.558;2023-01-16T01:52:25;39.80;;;26.33;;
7737;SDS011;29398;45.328;5.558;2023-01-16T01:53:30;35.92;;;28.88;;
7737;SDS011;29398;45.328;5.558;2023-01-16T01:54:35;37.45;;;29.27;;
7737;SDS011;29398;45.328;5.558;2023-01-16T01:55:40;31.10;;;26.10;;
7737;SDS011;29398;45.328;5.558;2023-01-16T01:56:44;30.70;;;25.85;;
7737;SDS011;29398;45.328;5.558;2023-01-16T01:57:52;110.03;;;32.10;;
7737;SDS011;29398;45.328;5.558;2023-01-16T01:58:58;90.18;;;25.88;;
7737;SDS011;29398;45.328;5.558;2023-01-16T02:00:04;50.90;;;25.50;;
7737;SDS011;29398;45.328;5.558;2023-01-16T02:01:16;45.78;;;24.02;;
7737;SDS011;29398;45.328;5.558;2023-01-16T02:02:18;85.80;;;26.15;;
7737;SDS011;29398;45.328;5.558;2023-01-16T02:03:24;113.53;;;31.58;;
7737;SDS011;29398;45.328;5.558;2023-01-16T02:04:31;121.78;;;39.67;;
7737;SDS011;29398;45.328;5.558;2023-01-16T02:05:36;57.88;;;26.85;;
7737;SDS011;29398;45.328;5.558;2023-01-16T02:06:45;94.90;;;26.58;;
7737;SDS011;29398;45.328;5.558;2023-01-16T02:07:50;69.43;;;28.33;;
7737;SDS011;29398;45.328;5.558;2023-01-16T02:08:54;74.47;;;27.35;;
7737;SDS011;29398;45.328;5.558;2023-01-16T02:09:56;73.20;;;29.38;;
7737;SDS011;29398;45.328;5.558;2023-01-16T02:11:07;68.68;;;25.60;;
7737;SDS011;29398;45.328;5.558;2023-01-16T02:12:25;51.05;;;26.88;;
7737;SDS011;29398;45.328;5.558;2023-01-16T02:13:28;54.00;;;33.22;;
7737;SDS011;29398;45.328;5.558;2023-01-16T02:14:30;54.20;;;28.00;;
7737;SDS011;29398;45.328;5.558;2023-01-16T02:15:34;46.65;;;31.83;;
7737;SDS011;29398;45.328;5.558;2023-01-16T02:16:37;52.70;;;35.72;;
7737;SDS011;29398;45.328;5.558;2023-01-16T02:17:57;53.65;;;33.63;;
7737;SDS011;29398;45.328;5.558;2023-01-16T02:19:18;48.22;;;33.28;;
7737;SDS011;29398;45.328;5.558;2023-01-16T02:20:30;43.33;;;30.90;;
7737;SDS011;29398;45.328;5.558;2023-01-16T02:21:45;38.28;;;29.83;;
7737;SDS011;29398;45.328;5.558;2023-01-16T02:24:54;35.80;;;28.60;;
7737;SDS011;29398;45.328;5.558;2023-01-16T02:27:43;33.35;;;25.40;;
7737;SDS011;29398;45.328;5.558;2023-01-16T02:30:36;28.40;;;24.08;;
7737;SDS011;29398;45.328;5.558;2023-01-16T02:32:03;27.58;;;22.55;;
7737;SDS011;29398;45.328;5.558;2023-01-16T02:33:11;28.73;;;22.55;;
7737;SDS011;29398;45.328;5.558;2023-01-16T02:34:26;28.35;;;23.95;;
7737;SDS011;29398;45.328;5.558;2023-01-16T02:37:04;26.80;;;20.42;;
7737;SDS011;29398;45.328;5.558;2023-01-16T02:38:13;25.17;;;20.92;;
7737;SDS011;29398;45.328;5.558;2023-01-16T02:39:25;24.88;;;19.92;;
7737;SDS011;29398;45.328;5.558;2023-01-16T02:40:37;24.67;;;20.42;;
7737;SDS011;29398;45.328;5.558;2023-01-16T02:41:47;23.08;;;18.25;;
7737;SDS011;29398;45.328;5.558;2023-01-16T02:42:53;22.48;;;18.67;;
7737;SDS011;29398;45.328;5.558;2023-01-16T02:45:10;19.73;;;15.80;;
7737;SDS011;29398;45.328;5.558;2023-01-16T02:46:20;19.30;;;15.77;;
7737;SDS011;29398;45.328;5.558;2023-01-16T02:47:28;20.48;;;16.13;;
7737;SDS011;29398;45.328;5.558;2023-01-16T02:48:37;20.17;;;15.23;;
7737;SDS011;29398;45.328;5.558;2023-01-16T02:49:47;23.90;;;16.23;;
7737;SDS011;29398;45.328;5.558;2023-01-16T02:50:56;19.98;;;15.80;;
7737;SDS011;29398;45.328;5.558;2023-01-16T02:52:04;20.75;;;16.13;;
7737;SDS011;29398;45.328;5.558;2023-01-16T02:53:14;18.70;;;14.80;;
7737;SDS011;29398;45.328;5.558;2023-01-16T02:54:19;19.45;;;14.55;;
7737;SDS011;29398;45.328;5.558;2023-01-16T02:55:26;18.08;;;13.05;;
7737;SDS011;29398;45.328;5.558;2023-01-16T02:56:35;18.58;;;12.35;;
7737;SDS011;29398;45.328;5.558;2023-01-16T02:57:43;13.95;;;11.13;;
7737;SDS011;29398;45.328;5.558;2023-01-16T02:58:47;14.85;;;11.80;;
7737;SDS011;29398;45.328;5.558;2023-01-16T02:59:51;14.27;;;10.93;;
7737;SDS011;29398;45.328;5.558;2023-01-16T03:00:53;17.73;;;11.98;;
7737;SDS011;29398;45.328;5.558;2023-01-16T03:01:57;15.05;;;11.93;;
7737;SDS011;29398;45.328;5.558;2023-01-16T03:02:59;15.80;;;11.25;;
7737;SDS011;29398;45.328;5.558;2023-01-16T03:04:03;16.88;;;12.68;;
7737;SDS011;29398;45.328;5.558;2023-01-16T03:05:06;14.82;;;12.45;;
7737;SDS011;29398;45.328;5.558;2023-01-16T03:06:17;14.48;;;11.68;;
7737;SDS011;29398;45.328;5.558;2023-01-16T03:07:55;16.05;;;11.98;;
7737;SDS011;29398;45.328;5.558;2023-01-16T03:09:18;15.25;;;11.20;;
7737;SDS011;29398;45.328;5.558;2023-01-16T03:10:41;17.90;;;12.60;;
7737;SDS011;29398;45.328;5.558;2023-01-16T03:12:00;15.27;;;11.85;;
7737;SDS011;29398;45.328;5.558;2023-01-16T03:13:16;17.40;;;12.95;;
7737;SDS011;29398;45.328;5.558;2023-01-16T03:15:30;16.20;;;12.25;;
7737;SDS011;29398;45.328;5.558;2023-01-16T03:16:41;17.83;;;12.77;;
7737;SDS011;29398;45.328;5.558;2023-01-16T03:17:57;18.17;;;12.73;;
7737;SDS011;29398;45.328;5.558;2023-01-16T03:19:12;17.30;;;13.23;;
7737;SDS011;29398;45.328;5.558;2023-01-16T03:20:27;18.67;;;14.00;;
7737;SDS011;29398;45.328;5.558;2023-01-16T03:21:36;18.42;;;13.57;;
7737;SDS011;29398;45.328;5.558;2023-01-16T03:22:47;17.13;;;14.45;;
7737;SDS011;29398;45.328;5.558;2023-01-16T03:23:57;15.95;;;13.45;;
7737;SDS011;29398;45.328;5.558;2023-01-16T03:25:12;16.83;;;12.68;;
7737;SDS011;29398;45.328;5.558;2023-01-16T03:26:21;20.40;;;16.20;;
7737;SDS011;29398;45.328;5.558;2023-01-16T03:27:31;18.77;;;16.85;;
7737;SDS011;29398;45.328;5.558;2023-01-16T03:28:41;21.95;;;19.65;;
7737;SDS011;29398;45.328;5.558;2023-01-16T03:29:54;21.25;;;17.55;;
7737;SDS011;29398;45.328;5.558;2023-01-16T03:31:00;20.13;;;17.10;;
7737;SDS011;29398;45.328;5.558;2023-01-16T03:32:12;20.20;;;17.17;;
7737;SDS011;29398;45.328;5.558;2023-01-16T03:33:25;22.23;;;18.00;;
7737;SDS011;29398;45.328;5.558;2023-01-16T03:34:35;24.42;;;19.50;;
7737;SDS011;29398;45.328;5.558;2023-01-16T03:35:40;22.33;;;19.50;;
7737;SDS011;29398;45.328;5.558;2023-01-16T03:36:49;21.13;;;18.90;;
7737;SDS011;29398;45.328;5.558;2023-01-16T03:37:55;21.10;;;18.95;;
7737;SDS011;29398;45.328;5.558;2023-01-16T03:39:01;22.77;;;18.98;;
7737;SDS011;29398;45.328;5.558;2023-01-16T03:40:04;22.17;;;18.42;;
7737;SDS011;29398;45.328;5.558;2023-01-16T03:41:10;19.83;;;17.73;;
7737;SDS011;29398;45.328;5.558;2023-01-16T03:42:15;19.65;;;17.45;;
7737;SDS011;29398;45.328;5.558;2023-01-16T03:43:23;20.38;;;18.17;;
7737;SDS011;29398;45.328;5.558;2023-01-16T03:44:31;22.70;;;18.10;;
7737;SDS011;29398;45.328;5.558;2023-01-16T03:45:36;24.67;;;19.17;;
7737;SDS011;29398;45.328;5.558;2023-01-16T03:46:43;21.13;;;18.35;;
7737;SDS011;29398;45.328;5.558;2023-01-16T03:47:49;22.83;;;19.70;;
7737;SDS011;29398;45.328;5.558;2023-01-16T03:48:59;22.98;;;18.60;;
7737;SDS011;29398;45.328;5.558;2023-01-16T03:50:06;25.20;;;20.65;;
7737;SDS011;29398;45.328;5.558;2023-01-16T03:51:13;25.98;;;21.42;;
7737;SDS011;29398;45.328;5.558;2023-01-16T03:52:19;22.63;;;18.40;;
7737;SDS011;29398;45.328;5.558;2023-01-16T03:53:28;20.17;;;17.27;;
7737;SDS011;29398;45.328;5.558;2023-01-16T03:54:34;22.33;;;18.67;;
7737;SDS011;29398;45.328;5.558;2023-01-16T03:55:44;19.25;;;17.25;;
7737;SDS011;29398;45.328;5.558;2023-01-16T03:56:52;21.98;;;18.77;;
7737;SDS011;29398;45.328;5.558;2023-01-16T03:57:59;21.80;;;18.27;;
7737;SDS011;29398;45.328;5.558;2023-01-16T03:59:04;17.92;;;16.00;;
7737;SDS011;29398;45.328;5.558;2023-01-16T04:00:08;19.73;;;16.67;;
7737;SDS011;29398;45.328;5.558;2023-01-16T04:01:14;21.88;;;18.23;;
7737;SDS011;29398;45.328;5.558;2023-01-16T04:02:23;22.73;;;19.60;;
7737;SDS011;29398;45.328;5.558;2023-01-16T04:03:28;24.42;;;20.13;;
7737;SDS011;29398;45.328;5.558;2023-01-16T04:04:39;24.55;;;19.27;;
7737;SDS011;29398;45.328;5.558;2023-01-16T04:05:46;25.65;;;19.45;;
7737;SDS011;29398;45.328;5.558;2023-01-16T04:06:53;31.60;;;23.10;;
7737;SDS011;29398;45.328;5.558;2023-01-16T04:07:58;27.33;;;21.25;;
7737;SDS011;29398;45.328;5.558;2023-01-16T04:09:03;25.80;;;20.42;;
7737;SDS011;29398;45.328;5.558;2023-01-16T04:10:09;33.25;;;21.85;;
7737;SDS011;29398;45.328;5.558;2023-01-16T04:11:13;32.85;;;21.58;;
7737;SDS011;29398;45.328;5.558;2023-01-16T04:12:17;25.38;;;20.58;;
7737;SDS011;29398;45.328;5.558;2023-01-16T04:13:22;26.05;;;20.60;;
7737;SDS011;29398;45.328;5.558;2023-01-16T04:14:28;25.75;;;20.13;;
7737;SDS011;29398;45.328;5.558;2023-01-16T04:15:32;28.08;;;20.98;;
7737;SDS011;29398;45.328;5.558;2023-01-16T04:16:36;31.45;;;24.17;;
7737;SDS011;29398;45.328;5.558;2023-01-16T04:17:39;28.55;;;21.88;;
7737;SDS011;29398;45.328;5.558;2023-01-16T04:18:42;26.92;;;22.10;;
7737;SDS011;29398;45.328;5.558;2023-01-16T04:19:46;27.40;;;22.35;;
7737;SDS011;29398;45.328;5.558;2023-01-16T04:20:47;28.15;;;22.23;;
7737;SDS011;29398;45.328;5.558;2023-01-16T04:21:50;25.48;;;20.85;;
7737;SDS011;29398;45.328;5.558;2023-01-16T04:22:51;27.20;;;23.67;;
7737;SDS011;29398;45.328;5.558;2023-01-16T04:23:54;22.58;;;19.90;;
7737;SDS011;29398;45.328;5.558;2023-01-16T04:24:58;23.83;;;19.52;;
7737;SDS011;29398;45.328;5.558;2023-01-16T04:26:02;24.88;;;20.42;;
7737;SDS011;29398;45.328;5.558;2023-01-16T04:27:03;23.75;;;19.48;;
7737;SDS011;29398;45.328;5.558;2023-01-16T04:28:05;24.40;;;19.10;;
7737;SDS011;29398;45.328;5.558;2023-01-16T04:29:06;24.17;;;19.25;;
7737;SDS011;29398;45.328;5.558;2023-01-16T04:30:09;22.30;;;18.92;;
7737;SDS011;29398;45.328;5.558;2023-01-16T04:31:10;21.25;;;18.48;;
7737;SDS011;29398;45.328;5.558;2023-01-16T04:32:13;22.73;;;18.77;;
7737;SDS011;29398;45.328;5.558;2023-01-16T04:33:14;20.50;;;16.17;;
7737;SDS011;29398;45.328;5.558;2023-01-16T04:34:16;21.48;;;17.38;;
7737;SDS011;29398;45.328;5.558;2023-01-16T04:35:18;20.52;;;16.45;;
7737;SDS011;29398;45.328;5.558;2023-01-16T04:36:21;21.73;;;18.88;;
7737;SDS011;29398;45.328;5.558;2023-01-16T04:37:23;22.58;;;18.95;;
7737;SDS011;29398;45.328;5.558;2023-01-16T04:38:25;20.60;;;17.77;;
7737;SDS011;29398;45.328;5.558;2023-01-16T04:39:27;20.63;;;17.17;;
7737;SDS011;29398;45.328;5.558;2023-01-16T04:40:28;23.00;;;17.95;;
7737;SDS011;29398;45.328;5.558;2023-01-16T04:41:30;24.88;;;19.48;;
7737;SDS011;29398;45.328;5.558;2023-01-16T04:42:37;22.80;;;18.67;;
7737;SDS011;29398;45.328;5.558;2023-01-16T04:43:39;20.10;;;17.75;;
7737;SDS011;29398;45.328;5.558;2023-01-16T04:44:40;21.98;;;18.65;;
7737;SDS011;29398;45.328;5.558;2023-01-16T04:45:42;20.55;;;17.10;;
7737;SDS011;29398;45.328;5.558;2023-01-16T04:46:43;20.35;;;18.00;;
7737;SDS011;29398;45.328;5.558;2023-01-16T04:47:45;21.17;;;17.83;;
7737;SDS011;29398;45.328;5.558;2023-01-16T04:48:47;19.40;;;17.40;;
7737;SDS011;29398;45.328;5.558;2023-01-16T04:49:49;22.50;;;20.10;;
7737;SDS011;29398;45.328;5.558;2023-01-16T04:50:51;23.25;;;19.20;;
7737;SDS011;29398;45.328;5.558;2023-01-16T04:51:53;22.27;;;19.52;;
7737;SDS011;29398;45.328;5.558;2023-01-16T04:52:54;25.73;;;21.23;;
7737;SDS011;29398;45.328;5.558;2023-01-16T04:53:57;26.88;;;21.77;;
7737;SDS011;29398;45.328;5.558;2023-01-16T04:54:58;26.42;;;22.50;;
7737;SDS011;29398;45.328;5.558;2023-01-16T04:56:00;27.30;;;20.83;;
7737;SDS011;29398;45.328;5.558;2023-01-16T04:57:02;26.48;;;23.30;;
7737;SDS011;29398;45.328;5.558;2023-01-16T04:58:04;26.38;;;21.90;;
7737;SDS011;29398;45.328;5.558;2023-01-16T04:59:05;27.10;;;21.92;;
7737;SDS011;29398;45.328;5.558;2023-01-16T05:00:08;27.95;;;21.30;;
7737;SDS011;29398;45.328;5.558;2023-01-16T05:01:12;23.60;;;20.48;;
7737;SDS011;29398;45.328;5.558;2023-01-16T05:02:14;24.90;;;22.40;;
7737;SDS011;29398;45.328;5.558;2023-01-16T05:03:15;26.35;;;21.83;;
7737;SDS011;29398;45.328;5.558;2023-01-16T05:04:17;25.67;;;20.42;;
7737;SDS011;29398;45.328;5.558;2023-01-16T05:05:18;26.33;;;20.65;;
7737;SDS011;29398;45.328;5.558;2023-01-16T05:06:22;23.80;;;20.48;;
7737;SDS011;29398;45.328;5.558;2023-01-16T05:07:23;24.98;;;20.42;;
7737;SDS011;29398;45.328;5.558;2023-01-16T05:08:26;24.90;;;21.42;;
7737;SDS011;29398;45.328;5.558;2023-01-16T05:09:28;22.92;;;19.77;;
7737;SDS011;29398;45.328;5.558;2023-01-16T05:10:31;21.08;;;18.27;;
7737;SDS011;29398;45.328;5.558;2023-01-16T05:11:32;23.77;;;19.15;;
7737;SDS011;29398;45.328;5.558;2023-01-16T05:12:34;24.70;;;19.50;;
7737;SDS011;29398;45.328;5.558;2023-01-16T05:13:35;22.55;;;20.25;;
7737;SDS011;29398;45.328;5.558;2023-01-16T05:14:37;21.23;;;19.13;;
7737;SDS011;29398;45.328;5.558;2023-01-16T05:15:38;24.00;;;19.58;;
7737;SDS011;29398;45.328;5.558;2023-01-16T05:16:43;23.98;;;20.40;;
7737;SDS011;29398;45.328;5.558;2023-01-16T05:17:45;25.38;;;20.48;;
7737;SDS011;29398;45.328;5.558;2023-01-16T05:18:48;24.38;;;20.52;;
7737;SDS011;29398;45.328;5.558;2023-01-16T05:19:49;24.83;;;19.73;;
7737;SDS011;29398;45.328;5.558;2023-01-16T05:20:51;24.02;;;19.90;;
7737;SDS011;29398;45.328;5.558;2023-01-16T05:21:53;20.38;;;18.08;;
7737;SDS011;29398;45.328;5.558;2023-01-16T05:22:55;19.23;;;17.05;;
7737;SDS011;29398;45.328;5.558;2023-01-16T05:23:56;19.27;;;16.38;;
7737;SDS011;29398;45.328;5.558;2023-01-16T05:24:59;18.58;;;16.67;;
7737;SDS011;29398;45.328;5.558;2023-01-16T05:26:00;18.60;;;15.63;;
7737;SDS011;29398;45.328;5.558;2023-01-16T05:27:03;17.52;;;15.38;;
7737;SDS011;29398;45.328;5.558;2023-01-16T05:28:04;21.10;;;17.00;;
7737;SDS011;29398;45.328;5.558;2023-01-16T05:29:06;18.58;;;16.40;;
7737;SDS011;29398;45.328;5.558;2023-01-16T05:30:07;18.55;;;15.18;;
7737;SDS011;29398;45.328;5.558;2023-01-16T05:31:11;16.30;;;13.82;;
7737;SDS011;29398;45.328;5.558;2023-01-16T05:32:12;18.33;;;16.52;;
7737;SDS011;29398;45.328;5.558;2023-01-16T05:33:14;20.00;;;16.80;;
7737;SDS011;29398;45.328;5.558;2023-01-16T05:34:15;17.98;;;15.50;;
7737;SDS011;29398;45.328;5.558;2023-01-16T05:35:17;17.27;;;15.60;;
7737;SDS011;29398;45.328;5.558;2023-01-16T05:36:19;19.42;;;16.55;;
7737;SDS011;29398;45.328;5.558;2023-01-16T05:37:23;19.20;;;16.40;;
7737;SDS011;29398;45.328;5.558;2023-01-16T05:38:24;20.20;;;17.23;;
7737;SDS011;29398;45.328;5.558;2023-01-16T05:39:26;21.10;;;18.67;;
7737;SDS011;29398;45.328;5.558;2023-01-16T05:40:27;23.33;;;20.23;;
7737;SDS011;29398;45.328;5.558;2023-01-16T05:41:29;21.35;;;17.95;;
7737;SDS011;29398;45.328;5.558;2023-01-16T05:42:30;22.73;;;19.80;;
7737;SDS011;29398;45.328;5.558;2023-01-16T05:43:32;24.30;;;21.80;;
7737;SDS011;29398;45.328;5.558;2023-01-16T05:44:34;24.98;;;21.38;;
7737;SDS011;29398;45.328;5.558;2023-01-16T05:45:36;22.25;;;18.85;;
7737;SDS011;29398;45.328;5.558;2023-01-16T05:46:37;25.70;;;21.48;;
7737;SDS011;29398;45.328;5.558;2023-01-16T05:47:39;32.03;;;25.63;;
7737;SDS011;29398;45.328;5.558;2023-01-16T05:48:40;26.25;;;23.65;;
7737;SDS011;29398;45.328;5.558;2023-01-16T05:49:42;23.92;;;20.95;;
7737;SDS011;29398;45.328;5.558;2023-01-16T05:50:43;27.42;;;22.02;;
7737;SDS011;29398;45.328;5.558;2023-01-16T05:51:46;23.30;;;20.45;;
7737;SDS011;29398;45.328;5.558;2023-01-16T05:52:48;25.23;;;20.48;;
7737;SDS011;29398;45.328;5.558;2023-01-16T05:53:50;22.05;;;19.85;;
7737;SDS011;29398;45.328;5.558;2023-01-16T05:54:53;23.58;;;19.40;;
7737;SDS011;29398;45.328;5.558;2023-01-16T05:55:54;23.33;;;19.15;;
7737;SDS011;29398;45.328;5.558;2023-01-16T05:56:56;22.42;;;20.10;;
7737;SDS011;29398;45.328;5.558;2023-01-16T05:57:57;24.55;;;19.83;;
7737;SDS011;29398;45.328;5.558;2023-01-16T05:59:00;22.17;;;19.65;;
7737;SDS011;29398;45.328;5.558;2023-01-16T06:00:01;23.35;;;19.50;;
7737;SDS011;29398;45.328;5.558;2023-01-16T06:01:05;22.42;;;19.17;;
7737;SDS011;29398;45.328;5.558;2023-01-16T06:02:07;23.52;;;19.75;;
7737;SDS011;29398;45.328;5.558;2023-01-16T06:03:08;24.98;;;21.00;;
7737;SDS011;29398;45.328;5.558;2023-01-16T06:04:10;23.77;;;19.35;;
7737;SDS011;29398;45.328;5.558;2023-01-16T06:05:12;22.48;;;20.17;;
7737;SDS011;29398;45.328;5.558;2023-01-16T06:06:14;24.50;;;20.65;;
7737;SDS011;29398;45.328;5.558;2023-01-16T06:07:16;25.42;;;19.83;;
7737;SDS011;29398;45.328;5.558;2023-01-16T06:08:18;24.33;;;19.90;;
7737;SDS011;29398;45.328;5.558;2023-01-16T06:09:20;25.42;;;20.52;;
7737;SDS011;29398;45.328;5.558;2023-01-16T06:10:22;27.90;;;20.55;;
7737;SDS011;29398;45.328;5.558;2023-01-16T06:11:24;21.67;;;19.38;;
7737;SDS011;29398;45.328;5.558;2023-01-16T06:12:25;23.33;;;20.90;;
7737;SDS011;29398;45.328;5.558;2023-01-16T06:13:27;23.45;;;19.95;;
7737;SDS011;29398;45.328;5.558;2023-01-16T06:14:28;23.58;;;19.10;;
7737;SDS011;29398;45.328;5.558;2023-01-16T06:15:30;22.23;;;19.75;;
7737;SDS011;29398;45.328;5.558;2023-01-16T06:16:32;23.08;;;20.70;;
7737;SDS011;29398;45.328;5.558;2023-01-16T06:17:35;25.08;;;19.98;;
7737;SDS011;29398;45.328;5.558;2023-01-16T06:18:36;23.23;;;19.13;;
7737;SDS011;29398;45.328;5.558;2023-01-16T06:19:38;24.35;;;20.15;;
7737;SDS011;29398;45.328;5.558;2023-01-16T06:20:39;24.13;;;21.73;;
7737;SDS011;29398;45.328;5.558;2023-01-16T06:21:41;24.38;;;19.38;;
7737;SDS011;29398;45.328;5.558;2023-01-16T06:22:43;22.77;;;19.88;;
7737;SDS011;29398;45.328;5.558;2023-01-16T06:23:46;22.75;;;19.83;;
7737;SDS011;29398;45.328;5.558;2023-01-16T06:24:48;23.25;;;19.85;;
7737;SDS011;29398;45.328;5.558;2023-01-16T06:25:50;27.05;;;21.90;;
7737;SDS011;29398;45.328;5.558;2023-01-16T06:26:52;21.08;;;18.40;;
7737;SDS011;29398;45.328;5.558;2023-01-16T06:27:53;21.20;;;19.00;;
7737;SDS011;29398;45.328;5.558;2023-01-16T06:28:55;21.42;;;18.23;;
7737;SDS011;29398;45.328;5.558;2023-01-16T06:29:56;20.90;;;18.52;;
7737;SDS011;29398;45.328;5.558;2023-01-16T06:30:58;23.13;;;18.42;;